Time;durP1;ratioP1;P1;durP2;ratioP2;P2;SDS_P1;SDS_P2;PMS_P1;PMS_P2;Temp;Humidity;BMP_temperature;BMP_pressure;BME280_temperature;BME280_humidity;BME280_pressure;Samples;Min_cycle;Max_cycle;Signal;HPM_P1;HPM_P2
2022/01/14 00:02:04;;;;;;;3.28;2.97;;;;;;;;;;5135694;28;20195;-58
2022/01/14 00:04:32;;;;;;;3.55;3.25;;;;;;;;;;5140172;27;20207;-58
2022/01/14 00:06:59;;;;;;;4.13;3.72;;;;;;;;;;5132025;27;20490;-58
2022/01/14 00:09:27;;;;;;;3.67;3.38;;;;;;;;;;5135945;27;20222;-58
2022/01/14 00:11:57;;;;;;;3.45;3.15;;;;;;;;;;5141316;27;20198;-58
2022/01/14 00:14:37;;;;;;;3.90;3.60;;;;;;;;;;5140603;27;20198;-58
2022/01/14 00:17:06;;;;;;;3.50;3.20;;;;;;;;;;5139442;27;20303;-58
2022/01/14 00:19:34;;;;;;;3.67;3.20;;;;;;;;;;5129969;27;20210;-58
2022/01/14 00:22:06;;;;;;;3.60;3.30;;;;;;;;;;5125339;27;20200;-58
2022/01/14 00:32:59;;;;;;;3.47;3.15;;;;;;;;;;5139136;27;20193;-58
2022/01/14 00:35:26;;;;;;;3.70;3.40;;;;;;;;;;5141129;27;20202;-58
2022/01/14 00:37:54;;;;;;;3.55;3.25;;;;;;;;;;5131276;27;20223;-58
2022/01/14 00:40:22;;;;;;;3.47;3.17;;;;;;;;;;5134494;27;20600;-58
2022/01/14 00:42:50;;;;;;;3.45;3.15;;;;;;;;;;5140856;27;20514;-58
2022/01/14 00:45:17;;;;;;;3.17;2.88;;;;;;;;;;5140113;27;20202;-58
2022/01/14 00:47:45;;;;;;;3.60;3.30;;;;;;;;;;5139381;27;20199;-59
2022/01/14 00:50:14;;;;;;;4.43;3.78;;;;;;;;;;5140647;27;20203;-58
2022/01/14 00:52:43;;;;;;;3.53;3.22;;;;;;;;;;5128893;27;20196;-58
2022/01/14 00:55:14;;;;;;;4.30;3.67;;;;;;;;;;5140364;27;20205;-58
2022/01/14 01:00:27;;;;;;;3.67;3.38;;;;;;;;;;5140322;27;20649;-58
2022/01/14 01:02:54;;;;;;;3.72;3.40;;;;;;;;;;5140208;27;20194;-58
2022/01/14 01:05:23;;;;;;;3.90;3.60;;;;;;;;;;5140631;27;20210;-58
2022/01/14 01:08:01;;;;;;;3.53;3.22;;;;;;;;;;5138416;27;20206;-58
2022/01/14 01:10:28;;;;;;;3.75;3.45;;;;;;;;;;5106619;28;20242;-58
2022/01/14 01:13:00;;;;;;;3.72;3.42;;;;;;;;;;5138149;27;20233;-59
2022/01/14 01:15:28;;;;;;;3.67;3.38;;;;;;;;;;5140321;27;20210;-58
2022/01/14 01:17:55;;;;;;;3.47;3.17;;;;;;;;;;5139394;27;20221;-58
2022/01/14 01:20:24;;;;;;;3.50;3.20;;;;;;;;;;5140383;27;20202;-59
2022/01/14 01:22:54;;;;;;;3.65;3.35;;;;;;;;;;5139768;27;20237;-58
2022/01/14 01:25:24;;;;;;;3.67;3.38;;;;;;;;;;5105159;28;20210;-58
2022/01/14 01:27:53;;;;;;;3.58;3.28;;;;;;;;;;5128109;27;20247;-58
2022/01/14 01:30:49;;;;;;;3.58;3.28;;;;;;;;;;5138968;27;20206;-58
2022/01/14 01:33:16;;;;;;;3.53;3.22;;;;;;;;;;5132131;27;20486;-58
2022/01/14 01:35:45;;;;;;;3.53;3.22;;;;;;;;;;5137067;27;20466;-58
2022/01/14 01:38:16;;;;;;;3.67;3.38;;;;;;;;;;5138020;27;20229;-59
2022/01/14 01:40:44;;;;;;;4.00;3.60;;;;;;;;;;5128569;27;20195;-58
2022/01/14 01:43:13;;;;;;;4.00;3.60;;;;;;;;;;5139413;27;20198;-58
2022/01/14 01:45:40;;;;;;;3.85;3.50;;;;;;;;;;5139136;27;20209;-58
2022/01/14 01:48:08;;;;;;;3.47;3.13;;;;;;;;;;5130014;27;20403;-58
2022/01/14 01:50:37;;;;;;;3.25;3.05;;;;;;;;;;5138396;27;20220;-58
2022/01/14 01:53:07;;;;;;;3.33;3.03;;;;;;;;;;5129306;27;20202;-58
2022/01/14 01:55:34;;;;;;;3.95;3.55;;;;;;;;;;5135001;27;20194;-58
2022/01/14 01:58:02;;;;;;;3.83;3.53;;;;;;;;;;5138782;27;20517;-58
2022/01/14 02:00:29;;;;;;;3.97;3.67;;;;;;;;;;5138698;27;20210;-58
2022/01/14 02:02:58;;;;;;;3.75;3.42;;;;;;;;;;5138473;27;20206;-58
2022/01/14 02:05:26;;;;;;;3.90;3.60;;;;;;;;;;5138997;27;20202;-58
2022/01/14 02:07:53;;;;;;;3.55;3.25;;;;;;;;;;5138655;27;20308;-59
2022/01/14 02:10:23;;;;;;;3.85;3.55;;;;;;;;;;5125744;27;20226;-58
2022/01/14 02:12:52;;;;;;;3.83;3.42;;;;;;;;;;5138597;27;20202;-58
2022/01/14 02:15:41;;;;;;;3.75;3.45;;;;;;;;;;5139048;27;20194;-58
2022/01/14 02:18:29;;;;;;;3.95;3.65;;;;;;;;;;5138179;27;20218;-58
2022/01/14 02:23:46;;;;;;;3.72;3.42;;;;;;;;;;5138544;27;20274;-58
2022/01/14 02:26:14;;;;;;;3.70;3.40;;;;;;;;;;5137722;27;20310;-58
2022/01/14 02:28:42;;;;;;;3.53;3.22;;;;;;;;;;5137612;27;20195;-58
2022/01/14 02:31:10;;;;;;;3.53;3.22;;;;;;;;;;5138304;27;20267;-58
2022/01/14 02:33:37;;;;;;;3.78;3.47;;;;;;;;;;5135249;27;20263;-58
2022/01/14 02:36:06;;;;;;;3.63;3.33;;;;;;;;;;5130620;27;20588;-58
2022/01/14 02:38:33;;;;;;;3.33;3.05;;;;;;;;;;5134206;27;20219;-58
2022/01/14 02:41:01;;;;;;;3.33;3.03;;;;;;;;;;5121616;27;20209;-58
2022/01/14 02:43:28;;;;;;;3.60;3.30;;;;;;;;;;5137947;27;20512;-58
2022/01/14 02:45:57;;;;;;;3.78;3.47;;;;;;;;;;5138257;27;20585;-58
2022/01/14 02:48:26;;;;;;;3.47;3.17;;;;;;;;;;5136794;27;20205;-59
2022/01/14 02:50:59;;;;;;;3.60;3.30;;;;;;;;;;5138069;27;20214;-58
2022/01/14 02:53:41;;;;;;;3.15;2.92;;;;;;;;;;5136049;27;20206;-58
2022/01/14 02:56:09;;;;;;;3.58;3.28;;;;;;;;;;5138405;27;20202;-58
2022/01/14 02:58:38;;;;;;;3.42;3.13;;;;;;;;;;5126518;27;20233;-58
2022/01/14 03:01:07;;;;;;;3.58;3.28;;;;;;;;;;5137372;27;20206;-58
2022/01/14 03:03:34;;;;;;;3.30;3.00;;;;;;;;;;5137217;27;20198;-58
2022/01/14 03:06:02;;;;;;;3.55;3.25;;;;;;;;;;5138061;27;20202;-57
2022/01/14 03:08:31;;;;;;;3.72;3.42;;;;;;;;;;5134147;27;20191;-56
2022/01/14 03:11:00;;;;;;;3.30;3.00;;;;;;;;;;5129496;27;20241;-59
2022/01/14 03:13:28;;;;;;;3.33;3.03;;;;;;;;;;5136904;27;20205;-56
2022/01/14 03:15:55;;;;;;;3.58;3.28;;;;;;;;;;5137928;27;20507;-56
2022/01/14 03:18:32;;;;;;;3.47;3.17;;;;;;;;;;5137934;27;20226;-56
2022/01/14 03:21:09;;;;;;;3.25;2.95;;;;;;;;;;5138460;27;20221;-58
2022/01/14 03:23:45;;;;;;;3.40;3.10;;;;;;;;;;5137543;27;20205;-58
2022/01/14 03:26:12;;;;;;;3.65;3.35;;;;;;;;;;5138193;27;20202;-58
2022/01/14 03:28:40;;;;;;;3.50;3.20;;;;;;;;;;5137808;28;20205;-58
2022/01/14 03:31:08;;;;;;;3.60;3.30;;;;;;;;;;5136796;28;20207;-58
2022/01/14 03:33:36;;;;;;;3.03;2.83;;;;;;;;;;5129629;28;20231;-58
2022/01/14 03:36:04;;;;;;;3.47;3.17;;;;;;;;;;5129185;27;20210;-58
2022/01/14 03:38:31;;;;;;;3.60;3.30;;;;;;;;;;5135709;27;20230;-58
2022/01/14 03:41:01;;;;;;;3.42;3.13;;;;;;;;;;5132829;27;20581;-58
2022/01/14 03:43:28;;;;;;;3.63;3.33;;;;;;;;;;5133931;27;20202;-59
2022/01/14 03:45:56;;;;;;;3.47;3.17;;;;;;;;;;5133009;27;20203;-58
2022/01/14 03:48:23;;;;;;;3.42;3.13;;;;;;;;;;5141483;27;20222;-58
2022/01/14 03:50:51;;;;;;;3.10;2.90;;;;;;;;;;5141176;27;20201;-59
2022/01/14 03:53:18;;;;;;;3.55;3.25;;;;;;;;;;5141638;27;20487;-58
2022/01/14 03:55:46;;;;;;;3.25;2.95;;;;;;;;;;5141581;27;20638;-58
2022/01/14 03:58:14;;;;;;;3.33;3.03;;;;;;;;;;5141453;27;20222;-58
2022/01/14 04:00:42;;;;;;;3.72;3.42;;;;;;;;;;5141177;27;20225;-58
2022/01/14 04:03:10;;;;;;;3.50;3.20;;;;;;;;;;5133391;27;20199;-58
2022/01/14 04:05:37;;;;;;;3.53;3.22;;;;;;;;;;5137089;27;20198;-58
2022/01/14 04:08:05;;;;;;;3.78;3.47;;;;;;;;;;5140090;27;20225;-59
2022/01/14 04:10:32;;;;;;;3.20;3.00;;;;;;;;;;5128266;27;20550;-58
2022/01/14 04:13:03;;;;;;;3.60;3.30;;;;;;;;;;5138064;27;20199;-58
2022/01/14 04:15:38;;;;;;;3.72;3.42;;;;;;;;;;5127719;27;20415;-58
2022/01/14 04:18:05;;;;;;;3.42;3.13;;;;;;;;;;5136592;27;20238;-58
2022/01/14 04:20:33;;;;;;;3.63;3.33;;;;;;;;;;5128520;27;20213;-59
2022/01/14 04:23:00;;;;;;;3.50;3.20;;;;;;;;;;5140229;27;20199;-59
2022/01/14 04:25:28;;;;;;;3.63;3.33;;;;;;;;;;5141266;27;20241;-59
2022/01/14 04:27:55;;;;;;;3.55;3.25;;;;;;;;;;5140198;27;20210;-58
2022/01/14 04:30:24;;;;;;;3.70;3.40;;;;;;;;;;5140163;27;20194;-58
2022/01/14 04:32:53;;;;;;;3.85;3.45;;;;;;;;;;5140328;27;20195;-58
2022/01/14 04:35:20;;;;;;;3.40;3.10;;;;;;;;;;5140557;27;20211;-58
2022/01/14 04:37:48;;;;;;;3.25;2.97;;;;;;;;;;5137094;27;20227;-58
2022/01/14 04:40:15;;;;;;;3.53;3.22;;;;;;;;;;5133140;27;20216;-58
2022/01/14 04:42:43;;;;;;;3.30;3.00;;;;;;;;;;5140275;27;20213;-58
2022/01/14 04:45:12;;;;;;;3.58;3.28;;;;;;;;;;5138956;27;20551;-58
2022/01/14 04:47:45;;;;;;;3.50;3.20;;;;;;;;;;5138332;27;20540;-58
2022/01/14 04:50:16;;;;;;;3.50;3.20;;;;;;;;;;5125571;27;20199;-58
2022/01/14 04:52:45;;;;;;;3.53;3.17;;;;;;;;;;5138781;27;20811;-59
2022/01/14 04:55:13;;;;;;;3.72;3.42;;;;;;;;;;5140126;27;20221;-59
2022/01/14 04:57:41;;;;;;;3.60;3.30;;;;;;;;;;5139185;27;20479;-58
2022/01/14 05:00:10;;;;;;;3.40;3.10;;;;;;;;;;5138779;27;20202;-58
2022/01/14 05:02:37;;;;;;;3.40;3.10;;;;;;;;;;5136990;27;20214;-59
2022/01/14 05:05:05;;;;;;;3.70;3.40;;;;;;;;;;5131510;27;20221;-58
2022/01/14 05:07:34;;;;;;;4.07;3.75;;;;;;;;;;5139013;27;20206;-58
2022/01/14 05:10:18;;;;;;;3.47;3.17;;;;;;;;;;5138716;27;20222;-59
2022/01/14 05:12:45;;;;;;;3.42;3.13;;;;;;;;;;5137722;27;20573;-59
2022/01/14 05:15:14;;;;;;;3.38;3.08;;;;;;;;;;5128460;27;20509;-59
2022/01/14 05:17:41;;;;;;;3.42;3.13;;;;;;;;;;5138401;27;20202;-59
2022/01/14 05:20:09;;;;;;;3.53;3.22;;;;;;;;;;5123931;27;20203;-58
2022/01/14 05:22:38;;;;;;;3.45;3.15;;;;;;;;;;5138724;27;20221;-58
2022/01/14 05:25:06;;;;;;;3.50;3.20;;;;;;;;;;5138678;27;20596;-59
2022/01/14 05:27:33;;;;;;;3.67;3.38;;;;;;;;;;5138868;27;20194;-60
2022/01/14 05:30:01;;;;;;;3.38;3.08;;;;;;;;;;5137944;27;20222;-58
2022/01/14 05:32:28;;;;;;;3.70;3.40;;;;;;;;;;5137438;27;20213;-58
2022/01/14 05:34:55;;;;;;;3.42;3.13;;;;;;;;;;5138762;27;20217;-58
2022/01/14 05:37:23;;;;;;;3.90;3.60;;;;;;;;;;5134853;27;20196;-58
2022/01/14 05:39:52;;;;;;;3.70;3.40;;;;;;;;;;5128314;27;20222;-58
2022/01/14 05:42:19;;;;;;;3.97;3.65;;;;;;;;;;5137848;27;20202;-58
2022/01/14 05:44:47;;;;;;;3.70;3.40;;;;;;;;;;5137758;27;20589;-58
2022/01/14 05:47:14;;;;;;;3.53;3.22;;;;;;;;;;5137782;27;20202;-58
2022/01/14 05:49:41;;;;;;;3.53;3.22;;;;;;;;;;5135483;27;20194;-58
2022/01/14 05:52:09;;;;;;;3.38;3.08;;;;;;;;;;5137311;27;20214;-59
2022/01/14 05:54:36;;;;;;;3.60;3.30;;;;;;;;;;5136191;27;20512;-58
2022/01/14 05:57:05;;;;;;;3.85;3.45;;;;;;;;;;5136544;27;20194;-58
2022/01/14 05:59:32;;;;;;;3.90;3.50;;;;;;;;;;5135843;27;20222;-59
2022/01/14 06:01:59;;;;;;;3.63;3.33;;;;;;;;;;5136313;27;20608;-59
2022/01/14 06:04:27;;;;;;;3.72;3.42;;;;;;;;;;5118095;27;20201;-58
2022/01/14 06:06:54;;;;;;;3.88;3.50;;;;;;;;;;5135380;27;20198;-58
2022/01/14 06:09:22;;;;;;;4.20;3.80;;;;;;;;;;5120499;27;20546;-58
2022/01/14 06:11:49;;;;;;;3.80;3.50;;;;;;;;;;5114362;28;20744;-58
2022/01/14 06:14:18;;;;;;;3.70;3.40;;;;;;;;;;5115592;28;20229;-58
2022/01/14 06:16:48;;;;;;;3.97;3.60;;;;;;;;;;5115603;28;20215;-58
2022/01/14 06:19:18;;;;;;;3.65;3.35;;;;;;;;;;5114939;28;20276;-58
2022/01/14 06:21:48;;;;;;;3.72;3.42;;;;;;;;;;5114818;28;20751;-58
2022/01/14 06:24:15;;;;;;;4.18;3.78;;;;;;;;;;5115672;28;20303;-58
2022/01/14 06:26:43;;;;;;;3.30;3.00;;;;;;;;;;5116141;28;20218;-58
2022/01/14 06:29:10;;;;;;;3.50;3.20;;;;;;;;;;5114813;28;20195;-58
2022/01/14 06:31:39;;;;;;;3.70;3.40;;;;;;;;;;5115464;28;20198;-59
2022/01/14 06:34:06;;;;;;;3.97;3.58;;;;;;;;;;5114755;28;20195;-59
2022/01/14 06:36:34;;;;;;;4.07;3.67;;;;;;;;;;5115654;28;20497;-58
2022/01/14 06:39:01;;;;;;;3.72;3.42;;;;;;;;;;5115696;28;20223;-59
2022/01/14 06:41:28;;;;;;;3.80;3.42;;;;;;;;;;5116584;28;20478;-59
2022/01/14 06:43:57;;;;;;;3.42;3.13;;;;;;;;;;5114878;28;20211;-58
2022/01/14 06:46:25;;;;;;;3.60;3.30;;;;;;;;;;5115291;28;20199;-58
2022/01/14 06:48:54;;;;;;;3.60;3.30;;;;;;;;;;5113802;28;20582;-58
2022/01/14 06:51:21;;;;;;;3.63;3.33;;;;;;;;;;5113524;28;20214;-58
2022/01/14 06:53:48;;;;;;;3.70;3.40;;;;;;;;;;5113224;28;20199;-59
2022/01/14 06:56:16;;;;;;;3.60;3.30;;;;;;;;;;5113483;28;20213;-58
2022/01/14 06:58:43;;;;;;;3.95;3.63;;;;;;;;;;5113394;28;20609;-58
2022/01/14 07:01:10;;;;;;;3.35;3.05;;;;;;;;;;5113206;28;20195;-58
2022/01/14 07:03:38;;;;;;;3.30;3.00;;;;;;;;;;5114197;28;20198;-58
2022/01/14 07:06:07;;;;;;;3.78;3.38;;;;;;;;;;5113913;28;20211;-58
2022/01/14 07:08:34;;;;;;;3.53;3.22;;;;;;;;;;5113062;28;20195;-58
2022/01/14 07:11:02;;;;;;;3.55;3.25;;;;;;;;;;5132889;27;20249;-58
2022/01/14 07:13:29;;;;;;;3.72;3.42;;;;;;;;;;5134788;27;20304;-58
2022/01/14 07:15:57;;;;;;;3.67;3.38;;;;;;;;;;5134035;27;20692;-58
2022/01/14 07:18:24;;;;;;;3.42;3.13;;;;;;;;;;5135220;27;20202;-59
2022/01/14 07:20:51;;;;;;;3.97;3.67;;;;;;;;;;5134623;27;20508;-58
2022/01/14 07:23:20;;;;;;;3.58;3.28;;;;;;;;;;5135610;27;20202;-58
2022/01/14 07:25:47;;;;;;;3.38;3.08;;;;;;;;;;5134283;27;20206;-58
2022/01/14 07:28:15;;;;;;;3.33;3.03;;;;;;;;;;5134357;28;20482;-58
2022/01/14 07:30:42;;;;;;;4.53;3.70;;;;;;;;;;5130873;28;20192;-58
2022/01/14 07:33:09;;;;;;;3.55;3.25;;;;;;;;;;5127435;27;20569;-58
2022/01/14 07:35:39;;;;;;;3.50;3.20;;;;;;;;;;5134517;28;20213;-58
2022/01/14 07:38:07;;;;;;;3.58;3.15;;;;;;;;;;5133510;28;20211;-59
2022/01/14 07:40:38;;;;;;;3.72;3.42;;;;;;;;;;5123078;28;20491;-58
2022/01/14 07:43:06;;;;;;;3.33;3.03;;;;;;;;;;5135021;28;20548;-58
2022/01/14 07:45:33;;;;;;;3.67;3.38;;;;;;;;;;5133953;28;20201;-58
2022/01/14 07:48:00;;;;;;;3.05;2.75;;;;;;;;;;5132469;28;20202;-58
2022/01/14 07:50:27;;;;;;;4.63;3.25;;;;;;;;;;5133480;28;20353;-58
2022/01/14 07:52:55;;;;;;;4.05;3.13;;;;;;;;;;5134487;28;20218;-58
2022/01/14 07:55:22;;;;;;;3.75;3.13;;;;;;;;;;5134335;28;20230;-58
2022/01/14 07:57:51;;;;;;;4.25;3.20;;;;;;;;;;5134075;28;20202;-58
2022/01/14 08:00:19;;;;;;;3.00;2.70;;;;;;;;;;5134279;28;20226;-58
2022/01/14 08:02:46;;;;;;;3.35;3.03;;;;;;;;;;5136061;28;20199;-58
2022/01/14 08:05:15;;;;;;;4.15;2.85;;;;;;;;;;5135282;28;20198;-58
2022/01/14 08:07:46;;;;;;;4.05;2.78;;;;;;;;;;5132929;28;20203;-58
2022/01/14 08:10:14;;;;;;;4.07;3.05;;;;;;;;;;5127102;28;20640;-58
2022/01/14 08:12:42;;;;;;;3.33;3.03;;;;;;;;;;5135945;28;20213;-58
2022/01/14 08:15:11;;;;;;;4.70;2.67;;;;;;;;;;5125313;28;20224;-58
2022/01/14 08:17:38;;;;;;;3.95;2.70;;;;;;;;;;5125228;28;20195;-58
2022/01/14 08:20:06;;;;;;;2.60;2.40;;;;;;;;;;5099032;28;20246;-57
2022/01/14 08:22:34;;;;;;;3.17;2.53;;;;;;;;;;5134683;27;20198;-58
2022/01/14 08:25:02;;;;;;;2.97;2.58;;;;;;;;;;5138002;27;20202;-58
2022/01/14 08:27:29;;;;;;;3.30;3.00;;;;;;;;;;5138509;27;20205;-59
2022/01/14 08:29:56;;;;;;;5.40;4.90;;;;;;;;;;5139031;27;20229;-58
2022/01/14 08:32:25;;;;;;;4.93;4.43;;;;;;;;;;5138332;27;20499;-58
2022/01/14 08:34:52;;;;;;;4.32;3.92;;;;;;;;;;5139191;27;20233;-58
2022/01/14 08:37:20;;;;;;;5.78;4.70;;;;;;;;;;5123281;27;20719;-58
2022/01/14 08:39:48;;;;;;;5.80;4.25;;;;;;;;;;5134419;27;20214;-58
2022/01/14 08:42:15;;;;;;;4.88;4.25;;;;;;;;;;5125631;27;20794;-58
2022/01/14 08:44:43;;;;;;;4.45;4.03;;;;;;;;;;5136647;27;20198;-58
2022/01/14 08:47:10;;;;;;;5.28;4.03;;;;;;;;;;5123300;27;20222;-58
2022/01/14 08:49:39;;;;;;;4.07;3.75;;;;;;;;;;5133517;27;20198;-58
2022/01/14 08:52:07;;;;;;;4.25;3.88;;;;;;;;;;5135728;27;20217;-58
2022/01/14 08:54:35;;;;;;;5.05;3.90;;;;;;;;;;5134486;27;20194;-58
2022/01/14 08:57:03;;;;;;;5.00;3.95;;;;;;;;;;5127342;27;20198;-58
2022/01/14 08:59:30;;;;;;;4.28;3.65;;;;;;;;;;5135829;27;20254;-59
2022/01/14 09:01:57;;;;;;;4.03;3.72;;;;;;;;;;5134583;27;20458;-59
2022/01/14 09:04:25;;;;;;;3.88;3.53;;;;;;;;;;5135604;27;20198;-58
2022/01/14 09:06:54;;;;;;;4.53;4.13;;;;;;;;;;5135012;27;20581;-58
2022/01/14 09:09:21;;;;;;;4.15;3.83;;;;;;;;;;5125699;27;20226;-58
2022/01/14 09:11:48;;;;;;;3.83;3.45;;;;;;;;;;5133140;27;20234;-58
2022/01/14 09:14:16;;;;;;;4.45;4.03;;;;;;;;;;5134196;27;20229;-58
2022/01/14 09:16:43;;;;;;;3.85;3.53;;;;;;;;;;5132545;27;20289;-58
2022/01/14 09:19:11;;;;;;;4.13;3.72;;;;;;;;;;5135534;27;20226;-58
2022/01/14 09:21:38;;;;;;;3.70;3.40;;;;;;;;;;5135155;27;20229;-58
2022/01/14 09:24:08;;;;;;;4.80;3.40;;;;;;;;;;5134782;27;20379;-58
2022/01/14 09:26:36;;;;;;;4.30;3.60;;;;;;;;;;5134209;27;20194;-58
2022/01/14 09:29:04;;;;;;;3.75;3.40;;;;;;;;;;5135493;27;20263;-58
2022/01/14 09:31:32;;;;;;;4.05;3.67;;;;;;;;;;5133791;27;20194;-58
2022/01/14 09:34:02;;;;;;;3.65;3.10;;;;;;;;;;5134101;27;20202;-58
2022/01/14 09:36:32;;;;;;;3.60;3.30;;;;;;;;;;5129527;27;20187;-58
2022/01/14 09:39:01;;;;;;;3.90;3.60;;;;;;;;;;5127399;27;20194;-58
2022/01/14 09:41:31;;;;;;;3.83;3.38;;;;;;;;;;5135866;27;20222;-58
2022/01/14 09:43:58;;;;;;;4.03;3.60;;;;;;;;;;5134001;27;20319;-58
2022/01/14 09:46:25;;;;;;;3.83;3.53;;;;;;;;;;5120248;27;20187;-58
2022/01/14 09:48:52;;;;;;;3.95;3.65;;;;;;;;;;5134510;27;20224;-59
2022/01/14 09:51:20;;;;;;;3.60;3.30;;;;;;;;;;5135596;27;20205;-59
2022/01/14 09:53:48;;;;;;;3.88;3.40;;;;;;;;;;5135667;27;20617;-58
2022/01/14 09:56:16;;;;;;;3.60;3.30;;;;;;;;;;5133923;27;20199;-58
2022/01/14 09:58:48;;;;;;;3.95;3.50;;;;;;;;;;5132680;27;20267;-58
2022/01/14 10:01:16;;;;;;;3.50;3.20;;;;;;;;;;5134230;27;20217;-58
2022/01/14 10:03:53;;;;;;;3.65;3.35;;;;;;;;;;5134499;27;20609;-58
2022/01/14 10:06:37;;;;;;;3.53;3.22;;;;;;;;;;5125022;27;20408;-58
2022/01/14 10:09:08;;;;;;;3.78;3.47;;;;;;;;;;5125949;27;20222;-59
2022/01/14 10:11:36;;;;;;;3.50;3.20;;;;;;;;;;5132559;27;20193;-58
2022/01/14 10:14:09;;;;;;;3.60;3.30;;;;;;;;;;5134555;27;20246;-58
2022/01/14 10:16:40;;;;;;;3.47;3.17;;;;;;;;;;5132646;27;20198;-59
2022/01/14 10:19:18;;;;;;;3.47;3.17;;;;;;;;;;5131345;27;20190;-58
2022/01/14 10:21:45;;;;;;;3.42;3.13;;;;;;;;;;5134324;27;20194;-59
2022/01/14 10:24:13;;;;;;;3.28;2.97;;;;;;;;;;5134362;27;20483;-59
2022/01/14 10:26:47;;;;;;;3.40;3.10;;;;;;;;;;5132678;27;20464;-58
2022/01/14 10:29:16;;;;;;;3.35;3.05;;;;;;;;;;5133014;27;20198;-58
2022/01/14 10:31:44;;;;;;;3.70;3.30;;;;;;;;;;5132956;27;20186;-58
2022/01/14 10:34:12;;;;;;;2.75;2.55;;;;;;;;;;5133489;27;20233;-58
2022/01/14 10:36:39;;;;;;;3.33;3.03;;;;;;;;;;5125344;27;20579;-58
2022/01/14 10:39:20;;;;;;;3.22;2.92;;;;;;;;;;5125453;27;20210;-58
2022/01/14 10:41:47;;;;;;;3.33;3.03;;;;;;;;;;5134094;27;20225;-58
2022/01/14 10:44:27;;;;;;;3.40;3.10;;;;;;;;;;5133095;27;20221;-58
2022/01/14 10:47:09;;;;;;;3.20;2.90;;;;;;;;;;5120926;27;20223;-58
2022/01/14 10:49:37;;;;;;;3.47;3.17;;;;;;;;;;5123151;27;20193;-58
2022/01/14 10:52:12;;;;;;;3.13;2.90;;;;;;;;;;5132975;27;20206;-58
2022/01/14 10:54:40;;;;;;;3.00;2.80;;;;;;;;;;5132712;27;20202;-58
2022/01/14 10:57:15;;;;;;;3.30;3.00;;;;;;;;;;5132013;27;20234;-58
2022/01/14 10:59:44;;;;;;;3.15;2.85;;;;;;;;;;5132345;27;20198;-58
2022/01/14 11:02:26;;;;;;;3.08;2.83;;;;;;;;;;5131991;27;20198;-58
2022/01/14 11:05:07;;;;;;;2.85;2.65;;;;;;;;;;5125157;27;20206;-58
2022/01/14 11:07:34;;;;;;;2.97;2.67;;;;;;;;;;5130947;27;20198;-58
2022/01/14 11:10:02;;;;;;;3.10;2.80;;;;;;;;;;5133463;27;20226;-58
2022/01/14 11:12:30;;;;;;;3.10;2.80;;;;;;;;;;5132281;27;20213;-58
2022/01/14 11:14:59;;;;;;;2.90;2.70;;;;;;;;;;5133749;27;20658;-58
2022/01/14 11:17:26;;;;;;;2.60;2.40;;;;;;;;;;5132689;27;20198;-58
2022/01/14 11:19:53;;;;;;;2.80;2.60;;;;;;;;;;5126403;28;20202;-58
2022/01/14 11:25:06;;;;;;;2.75;2.55;;;;;;;;;;5133600;27;20194;-58
2022/01/14 11:27:33;;;;;;;2.63;2.42;;;;;;;;;;5133394;27;20212;-58
2022/01/14 11:30:02;;;;;;;2.83;2.60;;;;;;;;;;5132334;27;20198;-58
2022/01/14 11:32:30;;;;;;;3.15;2.85;;;;;;;;;;5131816;28;20201;-58
2022/01/14 11:34:57;;;;;;;2.65;2.45;;;;;;;;;;5131888;28;20206;-58
2022/01/14 11:37:35;;;;;;;2.75;2.55;;;;;;;;;;5124670;28;20470;-58
2022/01/14 11:40:04;;;;;;;2.60;2.40;;;;;;;;;;5114153;28;20655;-58
2022/01/14 11:42:41;;;;;;;2.75;2.55;;;;;;;;;;5115303;28;20191;-58
2022/01/14 11:45:10;;;;;;;2.60;2.40;;;;;;;;;;5124965;28;20208;-58
2022/01/14 11:47:51;;;;;;;2.72;2.53;;;;;;;;;;5130488;28;20206;-58
2022/01/14 11:50:38;;;;;;;2.80;2.30;;;;;;;;;;5120241;28;20192;-59
2022/01/14 11:53:05;;;;;;;2.60;2.40;;;;;;;;;;5123055;28;20241;-59
2022/01/14 11:55:41;;;;;;;2.35;2.15;;;;;;;;;;5130176;28;20397;-56
2022/01/14 11:58:11;;;;;;;2.58;2.38;;;;;;;;;;5113312;27;20217;-56
2022/01/14 12:00:41;;;;;;;2.40;2.20;;;;;;;;;;5135302;27;20233;-56
2022/01/14 12:03:32;;;;;;;2.17;2.00;;;;;;;;;;5117119;27;20225;-56
2022/01/14 12:06:00;;;;;;;2.33;2.15;;;;;;;;;;5124580;27;20624;-56
2022/01/14 12:08:31;;;;;;;1.98;1.88;;;;;;;;;;5136828;27;20555;-57
2022/01/14 12:11:20;;;;;;;2.60;2.40;;;;;;;;;;5136643;27;20227;-58
2022/01/14 12:13:55;;;;;;;2.47;2.28;;;;;;;;;;5120550;27;20201;-59
2022/01/14 12:19:11;;;;;;;2.10;1.90;;;;;;;;;;5134971;27;20300;-58
2022/01/14 12:21:55;;;;;;;2.55;2.35;;;;;;;;;;5133567;27;20214;-58
2022/01/14 12:24:35;;;;;;;2.28;2.08;;;;;;;;;;5121398;27;20657;-58
2022/01/14 12:27:19;;;;;;;2.58;2.35;;;;;;;;;;5129275;27;20197;-59
2022/01/14 12:29:48;;;;;;;2.60;2.40;;;;;;;;;;5135970;27;20209;-56
2022/01/14 12:32:18;;;;;;;2.70;2.50;;;;;;;;;;5134648;27;20245;-57
2022/01/14 12:35:00;;;;;;;3.28;2.40;;;;;;;;;;5136563;27;20267;-58
2022/01/14 12:37:29;;;;;;;2.70;2.10;;;;;;;;;;5116725;27;20594;-59
2022/01/14 12:39:57;;;;;;;3.15;2.10;;;;;;;;;;5127270;27;20206;-60
2022/01/14 12:42:25;;;;;;;2.20;2.00;;;;;;;;;;5123394;27;20298;-60
2022/01/14 12:44:54;;;;;;;2.90;2.22;;;;;;;;;;5134841;27;20206;-60
2022/01/14 12:47:25;;;;;;;3.40;2.08;;;;;;;;;;5126977;27;20726;-60
2022/01/14 12:49:53;;;;;;;2.15;1.70;;;;;;;;;;5136040;27;20221;-60
2022/01/14 12:52:30;;;;;;;2.40;2.20;;;;;;;;;;5131289;27;20206;-60
2022/01/14 12:54:57;;;;;;;3.13;2.10;;;;;;;;;;5127536;27;20213;-60
2022/01/14 12:57:25;;;;;;;2.22;2.03;;;;;;;;;;5138183;27;20198;-60
2022/01/14 12:59:53;;;;;;;4.47;2.22;;;;;;;;;;5136986;27;20193;-60
2022/01/14 13:02:22;;;;;;;2.10;1.90;;;;;;;;;;5136830;27;20257;-60
2022/01/14 13:05:01;;;;;;;2.20;2.00;;;;;;;;;;5136859;27;20655;-60
2022/01/14 13:07:29;;;;;;;2.03;1.90;;;;;;;;;;5106383;27;20190;-60
2022/01/14 13:09:57;;;;;;;2.55;2.35;;;;;;;;;;5135057;27;20515;-61
2022/01/14 13:12:29;;;;;;;2.85;2.30;;;;;;;;;;5116161;28;20206;-60
2022/01/14 13:15:00;;;;;;;2.22;2.03;;;;;;;;;;5115954;28;20207;-60
2022/01/14 13:17:28;;;;;;;2.70;2.08;;;;;;;;;;5131044;27;20286;-60
2022/01/14 13:19:58;;;;;;;2.60;2.30;;;;;;;;;;5133826;27;20218;-60
2022/01/14 13:22:28;;;;;;;1.92;1.80;;;;;;;;;;5128184;27;20581;-60
2022/01/14 13:24:56;;;;;;;2.47;2.05;;;;;;;;;;5133216;27;20466;-60
2022/01/14 13:27:25;;;;;;;2.65;2.08;;;;;;;;;;5101132;28;20199;-60
2022/01/14 13:29:53;;;;;;;2.65;2.40;;;;;;;;;;5113054;28;20203;-60
2022/01/14 13:32:21;;;;;;;2.13;1.92;;;;;;;;;;5133550;27;20195;-60
2022/01/14 13:34:49;;;;;;;3.42;2.15;;;;;;;;;;5133685;27;20377;-60
2022/01/14 13:37:21;;;;;;;2.00;1.90;;;;;;;;;;5133050;27;20186;-61
2022/01/14 13:40:02;;;;;;;2.35;1.73;;;;;;;;;;5122798;27;20199;-60
2022/01/14 13:42:29;;;;;;;2.65;2.20;;;;;;;;;;5113533;28;20230;-60
2022/01/14 13:45:05;;;;;;;1.95;1.80;;;;;;;;;;5130857;27;20202;-60
2022/01/14 13:47:34;;;;;;;1.90;1.80;;;;;;;;;;5134523;27;20201;-59
2022/01/14 13:50:13;;;;;;;2.50;2.05;;;;;;;;;;5134199;27;20454;-60
2022/01/14 13:52:44;;;;;;;3.30;2.05;;;;;;;;;;5117587;27;20182;-60
2022/01/14 13:55:12;;;;;;;2.10;1.90;;;;;;;;;;5130997;27;20197;-60
2022/01/14 13:57:40;;;;;;;2.38;2.17;;;;;;;;;;5133363;27;20485;-60
2022/01/14 14:00:11;;;;;;;1.95;1.83;;;;;;;;;;5133049;27;20206;-60
2022/01/14 14:02:47;;;;;;;2.08;1.98;;;;;;;;;;5133028;27;20206;-60
2022/01/14 14:05:29;;;;;;;2.40;2.20;;;;;;;;;;5125481;27;20279;-60
2022/01/14 14:08:06;;;;;;;2.22;2.03;;;;;;;;;;5128994;27;20214;-60
2022/01/14 14:11:44;;;;;;;2.20;2.00;;;;;;;;;;5131319;27;20242;-60
2022/01/14 14:15:37;;;;;;;2.38;2.15;;;;;;;;;;5136044;27;20202;-60
2022/01/14 14:16:32;;;;;;;2.25;1.90;;;;;;;;;;5135529;27;20260;-60
2022/01/14 14:19:00;;;;;;;2.42;2.22;;;;;;;;;;5134681;27;20303;-60
2022/01/14 14:21:33;;;;;;;2.30;2.05;;;;;;;;;;5134134;27;20230;-59
2022/01/14 14:24:02;;;;;;;46.65;40.13;;;;;;;;;;5133309;27;20206;-60
2022/01/14 14:26:31;;;;;;;28.85;24.27;;;;;;;;;;5135132;27;20194;-60
2022/01/14 14:29:02;;;;;;;25.17;19.23;;;;;;;;;;5135585;27;20203;-60
2022/01/14 14:31:31;;;;;;;51.03;33.20;;;;;;;;;;5135183;27;20225;-59
2022/01/14 14:33:58;;;;;;;35.50;24.67;;;;;;;;;;5125752;27;20191;-60
2022/01/14 14:36:28;;;;;;;30.13;22.05;;;;;;;;;;5124984;27;20195;-60
2022/01/14 14:38:56;;;;;;;31.48;21.70;;;;;;;;;;5127435;27;20585;-60
2022/01/14 14:41:23;;;;;;;29.95;22.33;;;;;;;;;;5134479;27;20222;-59
2022/01/14 14:43:52;;;;;;;29.88;21.60;;;;;;;;;;5133869;27;20194;-59
2022/01/14 14:46:20;;;;;;;27.92;20.45;;;;;;;;;;5126751;27;20675;-59
2022/01/14 14:48:48;;;;;;;28.88;20.50;;;;;;;;;;5132803;27;20194;-59
2022/01/14 14:51:15;;;;;;;28.58;22.38;;;;;;;;;;5123918;27;20202;-59
2022/01/14 14:53:43;;;;;;;58.40;41.92;;;;;;;;;;5131608;27;20191;-59
2022/01/14 14:56:10;;;;;;;46.38;34.67;;;;;;;;;;5135006;27;20209;-59
2022/01/14 14:58:38;;;;;;;39.97;30.38;;;;;;;;;;5135178;27;20202;-59
2022/01/14 15:01:09;;;;;;;40.58;30.45;;;;;;;;;;5135251;27;20218;-59
2022/01/14 15:03:38;;;;;;;37.25;28.58;;;;;;;;;;5135047;27;20195;-59
2022/01/14 15:06:05;;;;;;;37.53;28.00;;;;;;;;;;5135148;27;20198;-59
2022/01/14 15:08:33;;;;;;;34.88;26.70;;;;;;;;;;5124915;27;20199;-59
2022/01/14 15:11:00;;;;;;;37.50;26.30;;;;;;;;;;5134912;27;20230;-59
2022/01/14 15:13:29;;;;;;;35.35;25.60;;;;;;;;;;5134937;27;20241;-59
2022/01/14 15:16:25;;;;;;;32.75;25.52;;;;;;;;;;5134504;27;20574;-60